Airfield :







YOU CAN JOIN US ON...

 
LOGIN :

Register | Disclaimer

   EN    FR    IT 

 









Legend :    VFR   Marginal VFR   IFR   Intensive IFR   Very Intensive IFR
Visi :
Ceiling :
>= 8 km
>= 3000ft
5 to 8 km
1000 to 3000 ft
1500m to 5 km
500 to 1000 ft
800 to 1500m
200 to 500 ft
< 800m
< 200 ft
Symbols :   Thunderstorms  Fog  Heavy snow  Heavy precipitations  Wind > 20 kt







- Airport Elevation : 333 ft


KWVL - Waterville Robert Lafleur

CURRENT METAR :
  • 221356Z AUTO 02010KT 10SM OVC007 12/11 A3015 RMK AO2 SLP239 T01220111

EXPIRED METARs :
  • 221326Z AUTO 02007KT 10SM OVC007 12/12 A3015 RMK AO2
  • 221256Z AUTO 04007KT 10SM OVC005 12/11 A3015 RMK AO2 SLP237 T01170111
  • 221245Z AUTO 03007KT 10SM OVC005 12/11 A3015 RMK AO2 CIG 002V007
  • 221156Z AUTO 02008KT 3SM BR OVC003 11/11 A3014 RMK AO2 SLP233 60001 70005 T01110111 10111 20100 51010

TAF N/A
KZBW FIR / North America



MET'MAP, your aeronautical weather chart ! - Copyright ORBIFLY December 2007 - Disclaimer

ORBIFLY MET'MAP TEAM :

Programming & Development : Alexandra Zaïnal
Concept & Development : Baudouin d'Aumeries
Co-Development & Prog : Marc-Olivier Méhu
Technical & hardware support : Manuel Goepfert

Contact : metmap@orbifly.com




SOURCES & CREDITS :

   NOAA